Time;durP1;ratioP1;P1;durP2;ratioP2;P2;SDS_P1;SDS_P2;PMS_P1;PMS_P2;Temp;Humidity;BMP_temperature;BMP_pressure;BME280_temperature;BME280_humidity;BME280_pressure;Samples;Min_cycle;Max_cycle;Signal;HPM_P1;HPM_P2
2022/03/25 00:00:29;;;;;;;15.02;6.43;;;;;;;6.14;44.65;101239.44;4423008;32;20097;-67
2022/03/25 00:02:56;;;;;;;16.62;5.70;;;;;;;6.01;44.94;101234.84;4422925;32;20115;-67
2022/03/25 00:05:24;;;;;;;12.95;6.65;;;;;;;5.96;45.68;101234.72;4422858;32;20471;-67
2022/03/25 00:07:51;;;;;;;17.50;5.68;;;;;;;5.89;45.29;101245.00;4422774;32;20145;-67
2022/03/25 00:10:19;;;;;;;9.70;5.37;;;;;;;5.92;45.35;101240.75;4422912;32;20144;-67
2022/03/25 00:12:46;;;;;;;13.62;5.53;;;;;;;5.86;45.11;101239.69;4422723;32;20489;-67
2022/03/25 00:15:13;;;;;;;10.70;5.28;;;;;;;5.79;45.55;101233.44;4422752;32;20093;-67
2022/03/25 00:17:41;;;;;;;13.00;5.00;;;;;;;5.75;45.33;101236.84;4422699;32;20101;-67
2022/03/25 00:20:09;;;;;;;14.35;5.07;;;;;;;5.65;46.20;101234.88;4423335;32;20496;-67
2022/03/25 00:22:36;;;;;;;17.87;5.45;;;;;;;5.54;46.00;101229.41;4424516;32;20129;-67
2022/03/25 00:25:05;;;;;;;13.07;5.07;;;;;;;5.54;46.19;101233.78;4410376;32;20543;-67
2022/03/25 00:27:32;;;;;;;11.15;5.18;;;;;;;5.49;46.97;101233.69;4424264;32;20476;-67
2022/03/25 00:30:00;;;;;;;12.75;5.35;;;;;;;5.57;46.02;101229.50;4424507;32;20486;-67
2022/03/25 00:32:27;;;;;;;19.23;5.12;;;;;;;5.51;46.54;101231.97;4424791;32;20123;-67
2022/03/25 00:34:55;;;;;;;12.27;4.70;;;;;;;5.42;46.37;101223.94;4424427;32;20093;-67
2022/03/25 00:37:23;;;;;;;14.68;5.37;;;;;;;5.33;48.80;101231.56;4410153;32;20105;-67
2022/03/25 00:39:52;;;;;;;13.07;4.82;;;;;;;5.18;47.94;101232.97;4424422;32;20081;-67
2022/03/25 00:42:19;;;;;;;13.48;5.28;;;;;;;5.10;48.25;101221.47;4424388;32;20168;-68
2022/03/25 00:44:47;;;;;;;11.10;5.40;;;;;;;5.18;48.86;101221.62;4424360;32;20560;-68
2022/03/25 00:47:15;;;;;;;9.30;4.55;;;;;;;4.98;50.34;101223.75;4424515;32;20131;-68
2022/03/25 00:49:42;;;;;;;10.45;5.20;;;;;;;5.05;48.08;101223.06;4424314;32;20436;-68
2022/03/25 00:52:10;;;;;;;9.95;4.80;;;;;;;5.03;48.31;101223.03;4424292;32;20503;-68
2022/03/25 00:54:37;;;;;;;17.20;5.28;;;;;;;4.95;48.92;101218.50;4424413;32;20101;-68
2022/03/25 00:57:05;;;;;;;13.10;4.95;;;;;;;4.90;51.07;101214.88;4424266;32;20465;-68
2022/03/25 00:59:32;;;;;;;11.98;4.07;;;;;;;4.90;50.30;101225.31;4424281;32;20089;-67
2022/03/25 01:02:00;;;;;;;9.85;4.80;;;;;;;4.72;50.98;101229.22;4410122;32;20451;-67
2022/03/25 01:04:29;;;;;;;10.18;4.55;;;;;;;4.85;49.48;101226.94;4424325;32;20085;-67
2022/03/25 01:06:56;;;;;;;10.95;4.93;;;;;;;4.84;50.59;101220.84;4424113;32;20101;-67
2022/03/25 01:09:24;;;;;;;8.32;4.70;;;;;;;4.86;48.99;101219.13;4424256;32;20135;-67
2022/03/25 01:11:52;;;;;;;14.77;5.10;;;;;;;4.82;50.96;101212.06;4424409;32;20140;-67
2022/03/25 01:14:20;;;;;;;10.77;4.85;;;;;;;4.70;50.07;101217.88;4424467;32;20097;-67
2022/03/25 01:16:48;;;;;;;18.85;4.62;;;;;;;4.86;49.19;101218.25;4424431;32;20131;-67
2022/03/25 01:19:15;;;;;;;9.73;4.37;;;;;;;4.84;49.24;101215.63;4424196;32;20394;-67
2022/03/25 01:21:43;;;;;;;12.07;4.60;;;;;;;4.72;49.83;101221.41;4424184;32;20729;-67
2022/03/25 01:24:11;;;;;;;10.90;4.68;;;;;;;4.61;49.96;101219.38;4424094;32;20089;-67
2022/03/25 01:26:39;;;;;;;10.32;4.60;;;;;;;4.70;49.71;101225.72;4424079;32;20105;-67
2022/03/25 01:29:07;;;;;;;10.77;4.90;;;;;;;4.66;50.54;101223.84;4424359;32;20104;-67
2022/03/25 01:31:36;;;;;;;8.57;4.87;;;;;;;4.71;50.23;101230.09;4423407;32;20124;-67
2022/03/25 01:34:03;;;;;;;15.32;5.97;;;;;;;4.58;50.49;101222.78;4424053;32;20097;-67
2022/03/25 01:36:30;;;;;;;12.88;5.10;;;;;;;4.55;50.33;101228.78;4424005;32;20097;-67
2022/03/25 01:38:58;;;;;;;12.60;4.90;;;;;;;4.45;51.95;101233.72;4423998;32;20116;-67
2022/03/25 01:41:26;;;;;;;10.80;5.22;;;;;;;4.35;51.70;101235.22;4424097;32;20450;-67
2022/03/25 01:44:00;;;;;;;12.90;4.65;;;;;;;4.28;51.47;101246.34;4424084;32;20085;-67
2022/03/25 01:46:28;;;;;;;10.52;4.50;;;;;;;4.41;50.86;101239.72;4423955;32;20509;-67
2022/03/25 01:48:56;;;;;;;22.98;5.28;;;;;;;4.47;50.74;101234.66;4424018;32;20085;-67
2022/03/25 01:51:30;;;;;;;8.38;4.35;;;;;;;4.50;51.09;101238.25;4423988;32;20808;-67
2022/03/25 01:54:23;;;;;;;9.25;4.57;;;;;;;4.43;50.89;101243.25;4424031;32;20212;-67
2022/03/25 01:56:56;;;;;;;10.85;4.68;;;;;;;4.46;50.91;101245.97;4423967;32;20461;-67
2022/03/25 01:59:24;;;;;;;10.48;4.55;;;;;;;4.30;51.42;101244.66;4424066;32;20487;-67
2022/03/25 02:01:54;;;;;;;12.45;5.07;;;;;;;4.20;52.17;101245.22;4423840;32;20151;-67
2022/03/25 02:04:24;;;;;;;16.02;5.53;;;;;;;4.10;53.06;101246.72;4424197;32;20089;-67
2022/03/25 02:06:52;;;;;;;16.73;4.80;;;;;;;3.97;54.82;101249.81;4423696;32;20102;-67
2022/03/25 02:09:24;;;;;;;19.37;5.82;;;;;;;4.00;52.63;101247.28;4423876;32;20366;-68
2022/03/25 02:11:53;;;;;;;10.65;5.47;;;;;;;4.09;53.32;101242.31;4424022;32;20728;-67
2022/03/25 02:14:20;;;;;;;12.70;5.40;;;;;;;3.88;54.72;101242.59;4423821;32;20509;-67
2022/03/25 02:16:49;;;;;;;16.87;5.62;;;;;;;3.80;54.45;101249.31;4424061;32;20174;-67
2022/03/25 02:19:18;;;;;;;17.33;6.60;;;;;;;3.70;55.30;101253.34;4424072;32;20085;-67
2022/03/25 02:21:47;;;;;;;9.35;5.30;;;;;;;3.61;56.05;101255.72;4423974;32;20139;-67
2022/03/25 02:24:15;;;;;;;13.15;6.20;;;;;;;3.64;54.20;101261.03;4423965;32;20164;-67
2022/03/25 02:26:44;;;;;;;14.50;5.95;;;;;;;3.57;55.48;101267.75;4423820;32;20097;-67
2022/03/25 02:29:14;;;;;;;16.35;5.85;;;;;;;3.57;56.04;101269.50;4423823;32;20081;-67
2022/03/25 02:31:42;;;;;;;18.80;5.95;;;;;;;3.65;55.46;101275.81;4424043;32;20124;-67
2022/03/25 02:34:10;;;;;;;14.43;6.45;;;;;;;3.49;56.63;101273.56;4424046;32;20105;-67
2022/03/25 02:36:43;;;;;;;14.40;5.55;;;;;;;3.53;54.69;101270.19;4423777;32;20117;-67
2022/03/25 02:39:12;;;;;;;15.98;6.78;;;;;;;3.42;56.48;101275.09;4423848;32;20414;-67
2022/03/25 02:41:41;;;;;;;20.37;6.68;;;;;;;3.38;56.20;101268.00;4423811;32;20177;-67
2022/03/25 02:44:10;;;;;;;12.60;6.32;;;;;;;3.50;55.51;101276.22;4423571;32;20165;-67
2022/03/25 02:46:41;;;;;;;18.73;6.47;;;;;;;3.49;56.35;101281.37;4424028;32;20169;-67
2022/03/25 02:49:09;;;;;;;17.08;6.85;;;;;;;3.55;54.82;101284.19;4424063;32;20116;-67
2022/03/25 02:51:36;;;;;;;11.70;6.22;;;;;;;3.56;54.89;101281.59;4423711;32;20575;-67
2022/03/25 02:54:04;;;;;;;15.35;6.53;;;;;;;3.57;54.96;101283.41;4423680;32;20085;-67
2022/03/25 02:56:32;;;;;;;19.83;7.40;;;;;;;3.49;54.98;101287.47;4423709;32;20453;-67
2022/03/25 02:58:59;;;;;;;16.27;7.10;;;;;;;3.46;55.37;101292.56;4423722;32;20078;-67
2022/03/25 03:01:27;;;;;;;15.90;6.68;;;;;;;3.35;56.67;101297.44;4423720;32;20509;-67
2022/03/25 03:03:54;;;;;;;14.38;6.30;;;;;;;3.16;57.97;101302.91;4423781;32;20440;-67
2022/03/25 03:06:21;;;;;;;19.02;7.55;;;;;;;3.22;56.27;101297.03;4423849;32;20167;-67
2022/03/25 03:08:49;;;;;;;16.58;7.00;;;;;;;3.23;56.19;101302.28;4423690;32;20082;-67
2022/03/25 03:11:16;;;;;;;15.70;6.55;;;;;;;3.36;56.19;101298.34;4423613;32;20159;-67
2022/03/25 03:13:44;;;;;;;15.65;5.30;;;;;;;3.47;56.32;101290.87;4423614;32;20089;-67
2022/03/25 03:16:12;;;;;;;14.05;6.28;;;;;;;3.58;55.52;101297.31;4423655;32;20124;-67
2022/03/25 03:18:39;;;;;;;14.65;6.57;;;;;;;3.70;55.27;101295.06;4423709;32;20165;-67
2022/03/25 03:21:06;;;;;;;11.65;5.80;;;;;;;3.67;56.53;101301.91;4423886;32;20101;-67
2022/03/25 03:23:34;;;;;;;12.02;6.50;;;;;;;3.66;55.26;101297.53;4423684;32;20086;-67
2022/03/25 03:26:01;;;;;;;16.65;6.70;;;;;;;3.62;55.62;101306.09;4423445;32;20101;-67
2022/03/25 03:28:28;;;;;;;15.13;6.53;;;;;;;3.52;55.89;101299.72;4423501;32;20081;-67
2022/03/25 03:30:55;;;;;;;20.35;6.90;;;;;;;3.58;56.04;101305.13;4423565;32;20140;-67
2022/03/25 03:33:23;;;;;;;14.45;6.03;;;;;;;3.73;55.50;101305.59;4423429;32;20524;-67
2022/03/25 03:35:50;;;;;;;20.88;6.60;;;;;;;3.83;54.70;101298.94;4423762;32;20611;-67
2022/03/25 03:38:18;;;;;;;13.35;6.45;;;;;;;3.68;57.10;101299.38;4423369;32;20464;-67
2022/03/25 03:40:45;;;;;;;17.58;6.85;;;;;;;3.49;57.43;101304.81;4423628;32;20120;-67
2022/03/25 03:43:12;;;;;;;17.48;6.78;;;;;;;3.43;56.13;101307.22;4423530;32;20089;-67
2022/03/25 03:45:39;;;;;;;18.10;7.10;;;;;;;3.50;55.66;101309.22;4423560;32;20467;-68
2022/03/25 03:48:07;;;;;;;18.92;7.35;;;;;;;3.44;56.10;101303.81;4423232;32;20498;-68
2022/03/25 03:50:33;;;;;;;12.77;6.50;;;;;;;3.34;56.38;101303.50;4423297;32;20120;-67
2022/03/25 03:53:00;;;;;;;17.05;7.12;;;;;;;3.35;56.42;101312.19;4423224;32;20121;-67
2022/03/25 03:55:28;;;;;;;15.77;6.57;;;;;;;3.16;59.00;101305.50;4422425;32;20109;-67
2022/03/25 03:58:14;;;;;;;17.00;6.80;;;;;;;3.05;58.20;101312.97;4423309;32;20480;-67
2022/03/25 04:00:41;;;;;;;17.00;7.75;;;;;;;3.22;57.15;101310.06;4423197;32;20148;-67
2022/03/25 04:03:09;;;;;;;13.73;7.20;;;;;;;3.41;56.44;101306.31;4423035;32;20723;-67
2022/03/25 04:05:36;;;;;;;17.17;7.53;;;;;;;3.59;55.83;101307.75;4422987;32;20502;-67
2022/03/25 04:08:04;;;;;;;19.05;7.57;;;;;;;3.57;55.67;101305.97;4422924;32;20089;-67
2022/03/25 04:10:31;;;;;;;17.02;7.37;;;;;;;3.57;55.76;101304.25;4422959;32;20093;-67
2022/03/25 04:12:58;;;;;;;14.02;6.87;;;;;;;3.53;55.78;101306.69;4422835;32;20549;-67
2022/03/25 04:15:26;;;;;;;10.90;6.35;;;;;;;3.61;55.40;101304.34;4422951;32;20113;-67
2022/03/25 04:17:54;;;;;;;12.48;6.78;;;;;;;3.67;55.01;101300.19;4422864;32;20078;-67
2022/03/25 04:20:22;;;;;;;17.48;6.65;;;;;;;3.55;55.41;101298.09;4422863;32;20577;-67
2022/03/25 04:22:49;;;;;;;12.98;6.50;;;;;;;3.34;57.70;101295.69;4422937;32;20102;-67
2022/03/25 04:25:16;;;;;;;15.18;7.35;;;;;;;3.07;59.22;101306.09;4422632;32;20520;-67
2022/03/25 04:27:47;;;;;;;16.50;7.35;;;;;;;2.81;59.84;101299.13;4422684;32;20094;-67
2022/03/25 04:30:17;;;;;;;16.98;7.37;;;;;;;2.72;60.70;101302.31;4422598;32;20085;-67
2022/03/25 04:32:45;;;;;;;20.30;7.18;;;;;;;2.73;60.68;101303.19;4422584;32;20117;-67
2022/03/25 04:35:13;;;;;;;18.30;8.38;;;;;;;2.61;60.57;101303.63;4422522;32;20495;-67
2022/03/25 04:37:41;;;;;;;26.30;10.55;;;;;;;2.52;62.11;101300.72;4422608;32;20498;-67
2022/03/25 04:40:18;;;;;;;22.45;8.93;;;;;;;2.58;62.22;101311.31;4422554;32;20109;-67
2022/03/25 04:42:50;;;;;;;18.55;8.05;;;;;;;2.57;61.60;101310.44;4422455;32;20560;-67
2022/03/25 04:45:19;;;;;;;20.83;7.47;;;;;;;2.58;60.92;101300.91;4424232;32;20097;-67
2022/03/25 04:47:46;;;;;;;17.87;7.25;;;;;;;2.66;60.61;101303.81;4430219;32;20084;-67
2022/03/25 04:50:14;;;;;;;17.87;7.72;;;;;;;2.81;59.13;101313.00;4431081;32;20179;-68
2022/03/25 04:52:42;;;;;;;18.37;7.55;;;;;;;3.00;58.97;101311.03;4429831;32;20183;-68
2022/03/25 04:55:15;;;;;;;18.52;8.27;;;;;;;3.08;58.24;101312.19;4429475;32;20172;-68
2022/03/25 04:57:44;;;;;;;24.80;7.47;;;;;;;3.10;58.69;101311.37;4428762;32;20163;-68
2022/03/25 05:00:11;;;;;;;26.58;8.10;;;;;;;3.24;58.79;101319.66;4429333;32;20166;-68
2022/03/25 05:02:39;;;;;;;38.33;10.38;;;;;;;3.24;58.58;101311.84;4431054;32;20769;-68
2022/03/25 05:05:07;;;;;;;35.65;10.13;;;;;;;3.17;60.31;101319.41;4430284;32;20097;-68
2022/03/25 05:07:34;;;;;;;25.98;10.35;;;;;;;3.04;61.05;101321.63;4433947;32;20085;-68
2022/03/25 05:10:03;;;;;;;23.52;9.50;;;;;;;2.92;61.61;101320.31;4433334;32;20139;-68
2022/03/25 05:12:33;;;;;;;32.22;10.80;;;;;;;2.97;61.44;101313.53;4433465;32;20097;-69
2022/03/25 05:15:02;;;;;;;24.12;10.07;;;;;;;2.97;62.53;101322.25;4431974;32;20121;-69
2022/03/25 05:17:30;;;;;;;23.35;9.85;;;;;;;2.97;63.24;101321.34;4432500;32;20674;-68
2022/03/25 05:19:58;;;;;;;23.20;10.85;;;;;;;3.08;62.00;101323.50;4432966;32;20188;-68
2022/03/25 05:22:26;;;;;;;28.05;10.60;;;;;;;3.34;61.65;101320.84;4432021;32;20171;-69
2022/03/25 05:24:53;;;;;;;35.55;10.88;;;;;;;3.41;59.86;101328.03;4431757;32;20794;-68
2022/03/25 05:27:20;;;;;;;23.33;11.82;;;;;;;3.48;61.02;101321.31;4433063;32;20100;-68
2022/03/25 05:29:47;;;;;;;34.03;11.40;;;;;;;3.58;61.06;101325.97;4432016;32;20167;-68
2022/03/25 05:32:15;;;;;;;24.73;11.40;;;;;;;3.64;61.10;101320.97;4429168;32;20127;-68
2022/03/25 05:34:42;;;;;;;42.15;11.32;;;;;;;3.72;60.95;101318.59;4432893;32;20106;-68
2022/03/25 05:37:10;;;;;;;40.85;12.63;;;;;;;3.83;60.70;101325.88;4440252;32;20077;-68
2022/03/25 05:39:37;;;;;;;36.78;13.48;;;;;;;3.93;59.53;101332.28;4440236;32;20097;-68
2022/03/25 05:42:05;;;;;;;35.40;12.93;;;;;;;4.05;59.66;101336.97;4437344;32;20105;-68
2022/03/25 05:44:32;;;;;;;46.47;20.85;;;;;;;4.15;59.31;101333.78;4432094;32;20152;-68
2022/03/25 05:46:59;;;;;;;51.00;22.23;;;;;;;4.28;60.64;101338.53;4433819;32;20084;-68
2022/03/25 05:49:30;;;;;;;43.35;20.50;;;;;;;4.45;60.49;101336.41;4429655;32;20093;-68
2022/03/25 05:51:58;;;;;;;52.53;22.13;;;;;;;4.54;60.78;101338.37;4432585;32;20133;-68
2022/03/25 05:54:26;;;;;;;44.05;20.17;;;;;;;4.67;58.76;101335.28;4433843;32;20112;-68
2022/03/25 05:56:54;;;;;;;44.50;19.55;;;;;;;4.93;57.41;101335.97;4432766;32;20101;-68
2022/03/25 05:59:21;;;;;;;45.72;18.65;;;;;;;5.03;57.84;101331.87;4435530;32;20158;-68
2022/03/25 06:01:48;;;;;;;38.67;18.45;;;;;;;5.19;57.87;101327.91;4423677;32;20528;-68
2022/03/25 06:04:16;;;;;;;33.42;14.82;;;;;;;5.35;57.63;101335.28;4423671;32;20143;-68
2022/03/25 06:06:43;;;;;;;35.10;15.48;;;;;;;5.53;58.47;101332.22;4429078;32;20137;-68
2022/03/25 06:09:10;;;;;;;31.27;15.68;;;;;;;5.65;59.51;101329.91;4434145;32;20452;-68
2022/03/25 06:11:38;;;;;;;40.45;15.68;;;;;;;5.80;58.43;101333.75;4429429;32;20090;-69
2022/03/25 06:14:05;;;;;;;46.33;16.10;;;;;;;5.98;58.97;101337.66;4429452;32;20788;-69
2022/03/25 06:16:33;;;;;;;47.17;15.05;;;;;;;6.14;58.91;101330.16;4437126;32;20089;-69
2022/03/25 06:19:01;;;;;;;37.13;15.18;;;;;;;6.34;58.16;101336.69;4431292;32;20231;-68
2022/03/25 06:21:28;;;;;;;44.33;16.73;;;;;;;6.73;57.64;101340.06;4438346;32;20570;-68
2022/03/25 06:23:55;;;;;;;52.08;15.02;;;;;;;7.09;54.56;101342.47;4438694;32;20461;-68
2022/03/25 06:26:22;;;;;;;58.83;15.75;;;;;;;7.36;50.58;101355.19;4439634;32;20081;-68
2022/03/25 06:28:49;;;;;;;52.47;17.15;;;;;;;7.32;48.04;101348.13;4439670;32;20089;-69
2022/03/25 06:31:17;;;;;;;44.22;16.00;;;;;;;7.02;47.88;101356.31;4439696;32;20646;-67
2022/03/25 06:33:44;;;;;;;36.03;14.43;;;;;;;6.69;48.01;101358.34;4439530;32;20186;-69
2022/03/25 06:36:14;;;;;;;26.67;13.15;;;;;;;6.79;48.51;101361.16;4435524;32;20124;-68
2022/03/25 06:38:42;;;;;;;35.33;11.85;;;;;;;6.90;47.82;101355.25;4424192;32;20113;-68
2022/03/25 06:41:09;;;;;;;49.55;12.18;;;;;;;7.04;48.30;101355.50;4423341;32;20101;-68
2022/03/25 06:43:37;;;;;;;28.38;12.18;;;;;;;7.19;47.26;101358.38;4422626;32;20097;-68
2022/03/25 06:46:04;;;;;;;31.40;11.88;;;;;;;7.32;46.69;101361.25;4422777;32;20468;-67
2022/03/25 06:48:33;;;;;;;34.78;11.02;;;;;;;7.56;46.37;101352.88;4432818;32;20089;-68
2022/03/25 06:51:01;;;;;;;27.48;9.85;;;;;;;7.84;46.23;101357.72;4438482;32;20157;-68
2022/03/25 06:53:28;;;;;;;22.83;9.75;;;;;;;8.08;45.04;101356.28;4438686;32;20101;-68
2022/03/25 06:55:56;;;;;;;19.77;9.40;;;;;;;8.35;45.11;101361.03;4438470;32;20107;-68
2022/03/25 06:58:23;;;;;;;20.50;9.25;;;;;;;8.59;43.68;101363.13;4438642;32;20089;-69
2022/03/25 07:00:51;;;;;;;37.65;10.35;;;;;;;8.79;43.19;101369.44;4438509;32;20094;-68
2022/03/25 07:03:18;;;;;;;22.17;9.93;;;;;;;9.03;42.04;101365.34;4430739;32;20176;-68
2022/03/25 07:05:46;;;;;;;26.00;9.05;;;;;;;9.26;41.62;101360.31;4429934;32;20097;-68
2022/03/25 07:08:13;;;;;;;23.48;9.40;;;;;;;9.51;40.27;101362.28;4438354;32;20093;-69
2022/03/25 07:10:42;;;;;;;24.35;8.98;;;;;;;9.77;39.38;101364.22;4438135;32;20152;-69
2022/03/25 07:13:10;;;;;;;16.55;8.77;;;;;;;9.97;38.66;101367.00;4438295;32;20134;-69
2022/03/25 07:15:37;;;;;;;17.58;8.65;;;;;;;10.17;38.11;101373.22;4438480;32;20119;-69
2022/03/25 07:18:04;;;;;;;20.70;8.73;;;;;;;10.35;37.89;101379.50;4438439;32;20105;-69
2022/03/25 07:20:32;;;;;;;25.33;8.55;;;;;;;10.44;37.69;101375.19;4436284;32;20105;-68
2022/03/25 07:22:59;;;;;;;26.15;9.40;;;;;;;10.55;37.60;101380.50;4438378;32;20101;-69
2022/03/25 07:25:27;;;;;;;24.08;9.25;;;;;;;10.52;37.30;101378.72;4428500;32;20081;-69
2022/03/25 07:27:54;;;;;;;16.40;8.40;;;;;;;10.64;37.61;101383.19;4422414;32;20502;-69
2022/03/25 07:30:22;;;;;;;14.65;7.82;;;;;;;10.65;37.48;101389.31;4434464;32;20128;-70
2022/03/25 07:32:49;;;;;;;20.88;8.88;;;;;;;10.73;37.82;101387.59;4438597;32;20135;-68
2022/03/25 07:35:16;;;;;;;18.90;9.10;;;;;;;10.79;38.04;101392.00;4439135;32;20085;-69
2022/03/25 07:37:44;;;;;;;21.02;8.80;;;;;;;10.82;37.92;101395.53;4424588;32;20126;-69
2022/03/25 07:40:14;;;;;;;24.17;9.20;;;;;;;10.91;37.65;101392.03;4422981;32;20148;-69
2022/03/25 07:42:42;;;;;;;24.98;8.18;;;;;;;10.93;37.61;101392.94;4426870;32;20495;-69
2022/03/25 07:45:13;;;;;;;19.48;8.77;;;;;;;11.05;37.64;101397.34;4424888;32;20094;-69
2022/03/25 07:47:49;;;;;;;26.77;8.98;;;;;;;11.08;37.94;101397.34;4423090;32;20090;-69
2022/03/25 07:50:22;;;;;;;22.40;9.77;;;;;;;11.34;37.93;101389.47;4422974;32;20499;-69
2022/03/25 07:52:51;;;;;;;23.23;10.00;;;;;;;11.46;37.32;101392.16;4423589;32;20085;-69
2022/03/25 07:55:20;;;;;;;19.20;9.00;;;;;;;11.65;36.78;101390.38;4424823;32;20089;-69
2022/03/25 07:57:48;;;;;;;27.80;10.13;;;;;;;11.85;36.58;101393.94;4430081;32;20520;-70
2022/03/25 08:00:17;;;;;;;17.58;8.52;;;;;;;12.07;36.34;101391.25;4423729;32;20093;-69
2022/03/25 08:02:46;;;;;;;20.92;8.88;;;;;;;12.27;35.97;101393.84;4423584;32;20128;-69
2022/03/25 08:05:14;;;;;;;22.08;8.05;;;;;;;12.33;35.74;101397.38;4423420;32;20089;-69
2022/03/25 08:07:44;;;;;;;16.08;7.82;;;;;;;12.44;35.48;101389.41;4423607;32;20155;-69
2022/03/25 08:10:12;;;;;;;25.25;7.10;;;;;;;12.43;34.79;101398.19;4423517;32;20887;-69
2022/03/25 08:12:39;;;;;;;31.35;9.40;;;;;;;12.48;35.41;101393.78;4423395;32;20539;-69
2022/03/25 08:15:07;;;;;;;18.52;7.65;;;;;;;12.51;35.44;101387.59;4430730;32;20950;-69
2022/03/25 08:17:58;;;;;;;20.83;8.48;;;;;;;12.64;34.94;101384.03;4429273;32;20097;-69
2022/03/25 08:20:33;;;;;;;21.77;7.90;;;;;;;12.73;35.07;101386.63;4433313;32;20795;-69
2022/03/25 08:23:02;;;;;;;17.77;7.87;;;;;;;12.78;35.23;101384.84;4424457;32;20105;-69
2022/03/25 08:28:17;;;;;;;13.85;7.30;;;;;;;13.11;34.40;101386.44;4429144;32;20128;-69
2022/03/25 08:30:46;;;;;;;16.92;7.28;;;;;;;13.24;34.41;101381.06;4431302;32;20453;-70
2022/03/25 08:33:14;;;;;;;22.25;7.05;;;;;;;13.27;34.41;101387.22;4431332;32;20105;-69
2022/03/25 08:35:43;;;;;;;19.42;6.82;;;;;;;13.45;33.75;101382.69;4428443;32;20845;-69
2022/03/25 08:38:11;;;;;;;18.48;6.93;;;;;;;13.34;33.97;101375.69;4438585;32;20089;-69
2022/03/25 08:40:40;;;;;;;27.33;7.62;;;;;;;13.51;33.60;101372.06;4438132;32;20120;-69
2022/03/25 08:43:28;;;;;;;12.48;7.28;;;;;;;13.62;33.94;101373.72;4440705;32;20196;-69
2022/03/25 08:45:55;;;;;;;25.23;7.97;;;;;;;13.80;32.96;101382.37;4435819;32;20701;-70
2022/03/25 08:48:23;;;;;;;20.40;7.85;;;;;;;13.80;33.25;101379.75;4430278;32;20101;-70
2022/03/25 08:50:50;;;;;;;13.62;7.40;;;;;;;13.98;32.84;101382.22;4424291;32;20117;-70
2022/03/25 08:53:18;;;;;;;16.45;6.50;;;;;;;14.11;32.64;101377.66;4423938;32;20093;-69
2022/03/25 08:55:45;;;;;;;16.17;7.32;;;;;;;14.17;32.32;101387.31;4422805;32;20684;-69
2022/03/25 08:58:12;;;;;;;20.30;7.70;;;;;;;14.07;32.20;101384.78;4422891;32;20085;-69
2022/03/25 09:00:40;;;;;;;14.38;7.62;;;;;;;14.06;32.68;101382.13;4423586;32;20090;-69
2022/03/25 09:03:07;;;;;;;14.05;7.70;;;;;;;14.34;32.50;101374.75;4424401;32;20101;-69
2022/03/25 09:05:36;;;;;;;18.48;7.82;;;;;;;14.19;32.49;101381.09;4423869;32;20082;-69
2022/03/25 09:08:04;;;;;;;17.02;7.20;;;;;;;14.34;32.02;101380.06;4432589;32;20089;-69
2022/03/25 09:10:31;;;;;;;21.48;7.82;;;;;;;14.32;32.36;101384.50;4432311;32;20089;-69
2022/03/25 09:12:59;;;;;;;14.60;7.68;;;;;;;14.33;32.14;101381.84;4425798;32;20729;-70
2022/03/25 09:15:26;;;;;;;22.45;8.27;;;;;;;14.43;32.34;101366.69;4440091;32;20077;-69
2022/03/25 09:17:53;;;;;;;18.20;8.45;;;;;;;14.66;31.77;101385.00;4440113;32;20783;-70
2022/03/25 09:20:21;;;;;;;21.92;8.00;;;;;;;14.42;31.66;101375.56;4440255;32;20089;-69
2022/03/25 09:22:48;;;;;;;27.85;8.57;;;;;;;14.61;31.61;101384.19;4440343;32;20096;-70
2022/03/25 09:25:15;;;;;;;19.60;7.50;;;;;;;14.70;31.28;101375.22;4440470;32;20085;-70
2022/03/25 09:27:43;;;;;;;17.50;8.25;;;;;;;14.82;31.33;101378.59;4440156;32;20097;-69
2022/03/25 09:30:10;;;;;;;23.35;8.48;;;;;;;14.74;30.75;101382.28;4439704;32;20813;-69
2022/03/25 09:32:58;;;;;;;15.30;8.07;;;;;;;14.56;31.35;101381.59;4439995;32;20109;-68
2022/03/25 09:35:31;;;;;;;18.50;7.20;;;;;;;14.73;30.98;101376.06;4439316;32;20427;-69
2022/03/25 09:37:58;;;;;;;16.52;7.80;;;;;;;14.90;31.42;101369.66;4423730;32;20188;-69
2022/03/25 09:40:27;;;;;;;17.55;7.82;;;;;;;15.21;30.39;101367.44;4424611;32;20101;-69
2022/03/25 09:42:55;;;;;;;21.73;8.07;;;;;;;15.32;30.53;101364.63;4424732;32;20162;-70
2022/03/25 09:45:25;;;;;;;22.60;9.35;;;;;;;15.44;29.48;101356.44;4424742;32;20112;-71
2022/03/25 09:47:54;;;;;;;24.90;9.68;;;;;;;15.72;30.18;101357.78;4424797;32;20128;-70
2022/03/25 09:50:24;;;;;;;29.77;8.77;;;;;;;16.10;29.67;101355.31;4424705;32;20132;-70
2022/03/25 09:52:52;;;;;;;18.17;9.02;;;;;;;15.91;29.57;101358.31;4424065;32;20109;-71
2022/03/25 09:55:40;;;;;;;19.17;8.90;;;;;;;15.91;29.31;101357.44;4422896;32;20134;-70
2022/03/25 09:58:11;;;;;;;16.40;8.13;;;;;;;16.18;29.47;101348.06;4423531;32;20094;-71
2022/03/25 10:00:38;;;;;;;28.33;8.80;;;;;;;16.13;28.47;101344.63;4424052;32;20127;-70
2022/03/25 10:03:06;;;;;;;17.92;8.27;;;;;;;16.03;28.54;101346.56;4424472;32;20484;-70
2022/03/25 10:05:53;;;;;;;27.85;9.02;;;;;;;16.19;28.59;101350.69;4423690;32;20155;-70
2022/03/25 10:08:33;;;;;;;17.20;7.87;;;;;;;16.22;27.59;101337.34;4423677;32;20112;-70
2022/03/25 10:11:27;;;;;;;19.25;7.85;;;;;;;16.47;29.08;101336.84;4423755;32;20101;-70
2022/03/25 10:14:17;;;;;;;20.73;8.98;;;;;;;16.83;27.64;101331.66;4423725;32;20189;-70
2022/03/25 10:16:46;;;;;;;15.23;7.78;;;;;;;16.79;27.03;101332.66;4410314;32;20094;-70
2022/03/25 10:19:24;;;;;;;22.80;8.80;;;;;;;17.20;27.98;101321.87;4424519;32;20164;-72
2022/03/25 10:22:02;;;;;;;19.70;8.45;;;;;;;17.25;27.13;101320.91;4424555;32;20078;-71
2022/03/25 10:24:37;;;;;;;15.60;7.68;;;;;;;17.69;26.41;101328.63;4424160;32;20097;-72
2022/03/25 10:27:13;;;;;;;15.95;7.75;;;;;;;17.83;25.64;101322.97;4423402;32;20093;-72
2022/03/25 10:29:44;;;;;;;88.30;11.18;;;;;;;17.70;25.68;101316.16;4429148;32;20483;-72
2022/03/25 10:32:19;;;;;;;22.85;9.20;;;;;;;17.80;25.29;101307.06;4438471;32;20089;-72
2022/03/25 10:35:02;;;;;;;18.02;9.15;;;;;;;18.22;25.85;101305.91;4439743;32;20168;-72
2022/03/25 10:37:29;;;;;;;15.50;8.90;;;;;;;17.84;25.38;101302.50;4426844;32;20146;-72
2022/03/25 10:39:57;;;;;;;14.75;8.27;;;;;;;18.03;25.61;101300.22;4424099;32;20128;-71
2022/03/25 10:42:24;;;;;;;21.17;8.48;;;;;;;18.23;25.15;101299.62;4423536;32;20105;-73
2022/03/25 10:44:58;;;;;;;20.37;9.32;;;;;;;18.42;24.89;101298.19;4423957;32;20124;-71
2022/03/25 10:47:28;;;;;;;29.45;9.43;;;;;;;18.30;24.86;101301.22;4424224;32;20089;-71
2022/03/25 10:50:11;;;;;;;25.00;8.38;;;;;;;18.40;24.92;101282.22;4427955;32;20764;-71
2022/03/25 10:52:39;;;;;;;20.35;7.82;;;;;;;18.75;24.29;101288.31;4431210;32;20118;-71
2022/03/25 10:55:20;;;;;;;14.40;7.70;;;;;;;18.62;24.42;101282.47;4430006;32;20106;-71
2022/03/25 10:57:55;;;;;;;17.80;8.32;;;;;;;18.81;24.10;101269.44;4430317;32;20208;-71
2022/03/25 11:00:24;;;;;;;14.82;8.77;;;;;;;18.81;24.34;101274.78;4418575;32;20139;-72
2022/03/25 11:02:53;;;;;;;13.70;7.32;;;;;;;18.89;24.18;101265.62;4434885;32;20151;-72
2022/03/25 11:05:21;;;;;;;10.52;5.87;;;;;;;19.60;23.47;101270.34;4427834;32;20109;-71
2022/03/25 11:07:48;;;;;;;13.50;5.90;;;;;;;20.19;22.37;101275.34;4430774;32;20085;-71
2022/03/25 11:10:17;;;;;;;12.07;5.20;;;;;;;20.89;21.69;101270.91;4437589;32;20112;-71
2022/03/25 11:12:47;;;;;;;16.75;5.00;;;;;;;21.48;20.99;101257.69;4439457;32;20152;-71
2022/03/25 11:15:15;;;;;;;13.13;6.00;;;;;;;22.42;19.42;101261.53;4439252;32;20113;-72
2022/03/25 11:17:44;;;;;;;12.95;6.40;;;;;;;23.04;19.01;101265.72;4439322;32;20136;-71
2022/03/25 11:20:15;;;;;;;18.58;7.43;;;;;;;23.50;18.29;101252.62;4424951;32;20088;-72
2022/03/25 11:22:53;;;;;;;12.63;6.70;;;;;;;23.77;18.25;101260.19;4439369;32;20166;-71
2022/03/25 11:25:22;;;;;;;13.15;7.32;;;;;;;24.09;17.98;101264.72;4439165;32;20081;-72
2022/03/25 11:27:54;;;;;;;15.93;7.25;;;;;;;24.55;17.54;101256.81;4423883;32;20865;-72
2022/03/25 11:30:22;;;;;;;11.88;7.78;;;;;;;24.48;17.53;101252.72;4429986;32;20167;-71
2022/03/25 11:33:04;;;;;;;17.73;8.05;;;;;;;24.72;16.73;101255.00;4431604;32;20140;-70